Time,TemperatureF,DewpointF,PressureIn,WindDirection,WindDirectionDegrees,WindSpeedMPH,WindSpeedGustMPH,Humidity,HourlyPrecipIn,Conditions,Clouds,dailyrainin,SoftwareType,DateUTC
2013-01-21 00:00:00,16.9,4.3,29.41,WNW,292,3.1,3.4,57,0.00,,---,0.00,VWS V14.01,2013-01-21 06:00:00,
2013-01-21 00:05:00,17.1,4.5,29.41,WNW,292,4.3,4.9,57,0.00,,---,0.00,VWS V14.01,2013-01-21 06:05:00,
2013-01-21 00:10:00,16.9,4.3,29.41,WNW,292,7.8,7.8,57,0.00,,---,0.00,VWS V14.01,2013-01-21 06:10:00,
2013-01-21 00:15:00,16.7,4.1,29.41,WNW,292,4.0,5.6,57,0.00,,---,0.00,VWS V14.01,2013-01-21 06:15:00,
2013-01-21 00:20:00,16.9,4.3,29.41,West,270,6.3,6.3,57,0.00,,---,0.00,VWS V14.01,2013-01-21 06:20:00,
2013-01-21 00:25:00,16.7,4.1,29.41,West,270,6.5,6.5,57,0.00,,---,0.00,VWS V14.01,2013-01-21 06:25:00,
2013-01-21 00:30:00,16.9,4.3,29.38,WNW,292,2.5,2.7,57,0.00,,---,0.00,VWS V14.01,2013-01-21 06:30:00,
2013-01-21 00:35:00,16.9,4.3,29.38,NNW,338,3.4,3.4,57,0.00,,---,0.00,VWS V14.01,2013-01-21 06:35:00,
2013-01-21 00:40:00,16.9,4.7,29.38,West,270,6.0,6.0,58,0.00,,---,0.00,VWS V14.01,2013-01-21 06:40:00,
2013-01-21 00:45:00,16.5,4.3,29.38,West,270,10.1,10.1,58,0.00,,---,0.00,VWS V14.01,2013-01-21 06:45:00,
2013-01-21 00:50:00,16.7,4.5,29.38,NNW,338,4.0,4.0,58,0.00,,---,0.00,VWS V14.01,2013-01-21 06:50:00,
2013-01-21 00:55:00,16.5,4.3,29.38,West,270,4.7,8.5,58,0.00,,---,0.00,VWS V14.01,2013-01-21 06:55:00,
2013-01-21 01:00:00,16.3,3.8,29.38,NNW,338,5.4,6.3,57,0.00,,---,0.00,VWS V14.01,2013-01-21 07:00:00,
2013-01-21 01:05:00,16.5,4.0,29.38,WNW,292,5.4,5.4,57,0.00,,---,0.00,VWS V14.01,2013-01-21 07:05:00,
2013-01-21 01:10:00,16.5,4.0,29.38,North,0,6.5,6.5,57,0.00,,---,0.00,VWS V14.01,2013-01-21 07:10:00,
2013-01-21 01:15:00,16.5,4.0,29.38,West,270,5.4,5.4,57,0.00,,---,0.00,VWS V14.01,2013-01-21 07:15:00,
2013-01-21 01:20:00,16.5,4.0,29.38,WNW,292,8.5,8.5,57,0.00,,---,0.00,VWS V14.01,2013-01-21 07:20:00,
2013-01-21 01:25:00,16.7,4.1,29.38,North,0,6.3,6.3,57,0.00,,---,0.00,VWS V14.01,2013-01-21 07:25:00,
2013-01-21 01:30:00,16.5,4.0,29.38,NNW,338,3.1,3.6,57,0.00,,---,0.00,VWS V14.01,2013-01-21 07:30:00,
2013-01-21 01:35:00,16.5,4.0,29.38,West,270,2.7,2.7,57,0.00,,---,0.00,VWS V14.01,2013-01-21 07:35:00,
2013-01-21 01:40:00,16.5,4.0,29.38,NW,315,4.3,6.0,57,0.00,,---,0.00,VWS V14.01,2013-01-21 07:40:00,
2013-01-21 01:46:00,16.7,4.5,29.38,WSW,248,8.1,8.1,58,0.00,,---,0.00,VWS V14.01,2013-01-21 07:46:00,
2013-01-21 01:51:00,16.7,4.5,29.38,West,270,7.4,7.4,58,0.00,,---,0.00,VWS V14.01,2013-01-21 07:51:00,
2013-01-21 01:56:00,16.5,4.3,29.38,WSW,248,7.8,8.1,58,0.00,,---,0.00,VWS V14.01,2013-01-21 07:56:00,
2013-01-21 02:01:00,16.2,4.0,29.38,West,270,12.1,12.1,58,0.00,,---,0.00,VWS V14.01,2013-01-21 08:01:00,
2013-01-21 02:06:00,15.8,3.7,29.38,West,270,8.5,8.5,58,0.00,,---,0.00,VWS V14.01,2013-01-21 08:06:00,
2013-01-21 02:11:00,15.8,3.7,29.38,West,270,6.5,7.6,58,0.00,,---,0.00,VWS V14.01,2013-01-21 08:11:00,
2013-01-21 02:16:00,15.8,3.7,29.41,WSW,248,8.1,8.1,58,0.00,,---,0.00,VWS V14.01,2013-01-21 08:16:00,
2013-01-21 02:21:00,15.4,2.9,29.41,West,270,8.1,8.1,57,0.00,,---,0.00,VWS V14.01,2013-01-21 08:21:00,
2013-01-21 02:27:00,15.4,2.9,29.41,West,270,2.7,2.7,57,0.00,,---,0.00,VWS V14.01,2013-01-21 08:27:00,
2013-01-21 02:32:00,15.4,2.9,29.38,WSW,248,7.4,9.8,57,0.00,,---,0.00,VWS V14.01,2013-01-21 08:32:00,
2013-01-21 02:37:00,15.1,2.6,29.38,West,270,5.8,5.8,57,0.00,,---,0.00,VWS V14.01,2013-01-21 08:37:00,
2013-01-21 02:42:00,15.4,2.9,29.38,West,270,4.3,4.3,57,0.00,,---,0.00,VWS V14.01,2013-01-21 08:42:00,
2013-01-21 02:47:00,14.7,2.3,29.38,West,270,8.7,8.7,57,0.00,,---,0.00,VWS V14.01,2013-01-21 08:47:00,
2013-01-21 02:52:00,14.5,2.1,29.38,WNW,292,12.8,12.8,57,0.00,,---,0.00,VWS V14.01,2013-01-21 08:52:00,
2013-01-21 02:57:00,14.5,2.1,29.38,WSW,248,8.7,8.7,57,0.00,,---,0.00,VWS V14.01,2013-01-21 08:57:00,
2013-01-21 03:02:00,14.4,1.9,29.38,West,270,5.6,10.1,57,0.00,,---,0.00,VWS V14.01,2013-01-21 09:02:00,
2013-01-21 03:07:00,14.4,1.9,29.38,NW,315,2.9,3.8,57,0.00,,---,0.00,VWS V14.01,2013-01-21 09:07:00,
2013-01-21 03:12:00,14.4,1.9,29.38,WNW,292,6.5,6.5,57,0.00,,---,0.00,VWS V14.01,2013-01-21 09:12:00,
2013-01-21 03:17:00,14.5,2.1,29.38,West,270,5.4,5.4,57,0.00,,---,0.00,VWS V14.01,2013-01-21 09:17:00,
2013-01-21 03:22:00,14.4,1.9,29.38,West,270,15.4,15.4,57,0.00,,---,0.00,VWS V14.01,2013-01-21 09:22:00,
2013-01-21 03:27:00,14.0,1.6,29.38,WSW,248,6.0,7.8,57,0.00,,---,0.00,VWS V14.01,2013-01-21 09:27:00,
2013-01-21 03:32:00,14.2,1.8,29.38,NW,315,5.4,5.4,57,0.00,,---,0.00,VWS V14.01,2013-01-21 09:32:00,
2013-01-21 03:37:00,14.0,1.6,29.38,West,270,4.7,4.7,57,0.00,,---,0.00,VWS V14.01,2013-01-21 09:37:00,
2013-01-21 03:42:00,13.8,1.4,29.38,West,270,2.9,12.1,57,0.00,,---,0.00,VWS V14.01,2013-01-21 09:42:00,
2013-01-21 03:48:00,14.2,1.8,29.38,NW,315,6.3,6.3,57,0.00,,---,0.00,VWS V14.01,2013-01-21 09:48:00,
2013-01-21 03:53:00,13.6,1.2,29.38,West,270,3.4,14.8,57,0.00,,---,0.00,VWS V14.01,2013-01-21 09:53:00,
2013-01-21 03:58:00,13.6,1.2,29.38,WNW,292,6.0,9.6,57,0.00,,---,0.00,VWS V14.01,2013-01-21 09:58:00,
2013-01-21 04:03:00,13.6,1.2,29.38,WNW,292,8.7,8.7,57,0.00,,---,0.00,VWS V14.01,2013-01-21 10:03:00,
2013-01-21 04:08:00,13.6,1.2,29.38,West,270,7.6,7.6,57,0.00,,---,0.00,VWS V14.01,2013-01-21 10:08:00,
2013-01-21 04:13:00,13.5,1.1,29.38,West,270,9.4,10.5,57,0.00,,---,0.00,VWS V14.01,2013-01-21 10:13:00,
2013-01-21 04:18:00,13.3,0.9,29.35,West,270,5.4,10.1,57,0.00,,---,0.00,VWS V14.01,2013-01-21 10:18:00,
2013-01-21 04:23:00,13.3,0.9,29.35,WNW,292,9.2,9.2,57,0.00,,---,0.00,VWS V14.01,2013-01-21 10:23:00,
2013-01-21 04:28:00,13.3,0.9,29.35,West,270,6.0,6.0,57,0.00,,---,0.00,VWS V14.01,2013-01-21 10:28:00,
2013-01-21 04:33:00,13.3,0.9,29.35,West,270,8.5,8.5,57,0.00,,---,0.00,VWS V14.01,2013-01-21 10:33:00,
2013-01-21 04:38:00,13.3,0.9,29.35,West,270,7.4,8.1,57,0.00,,---,0.00,VWS V14.01,2013-01-21 10:38:00,
2013-01-21 04:43:00,13.1,0.7,29.35,West,270,5.6,5.6,57,0.00,,---,0.00,VWS V14.01,2013-01-21 10:43:00,
2013-01-21 04:48:00,13.1,0.7,29.38,WNW,292,5.6,6.3,57,0.00,,---,0.00,VWS V14.01,2013-01-21 10:48:00,
2013-01-21 04:53:00,12.9,0.6,29.38,WNW,292,7.8,7.8,57,0.00,,---,0.00,VWS V14.01,2013-01-21 10:53:00,
2013-01-21 04:58:00,12.7,0.4,29.38,West,270,7.6,7.6,57,0.00,,---,0.00,VWS V14.01,2013-01-21 10:58:00,
2013-01-21 05:03:00,12.7,0.4,29.38,WSW,248,4.0,4.0,57,0.00,,---,0.00,VWS V14.01,2013-01-21 11:03:00,
2013-01-21 05:08:00,12.9,0.6,29.38,WNW,292,6.0,6.0,57,0.00,,---,0.00,VWS V14.01,2013-01-21 11:08:00,
2013-01-21 05:13:00,12.9,0.6,29.38,WSW,248,9.6,9.6,57,0.00,,---,0.00,VWS V14.01,2013-01-21 11:13:00,
2013-01-21 05:18:00,12.9,0.6,29.35,West,270,4.0,4.0,57,0.00,,---,0.00,VWS V14.01,2013-01-21 11:18:00,
2013-01-21 05:23:00,12.6,0.2,29.35,NW,315,8.1,8.1,57,0.00,,---,0.00,VWS V14.01,2013-01-21 11:23:00,
2013-01-21 05:29:00,12.2,-0.1,29.35,ESE,112,15.2,15.2,57,0.00,,---,0.00,VWS V14.01,2013-01-21 11:29:00,
2013-01-21 05:34:00,11.8,-0.4,29.38,West,270,16.3,16.3,57,0.00,,---,0.00,VWS V14.01,2013-01-21 11:34:00,
2013-01-21 05:39:00,11.8,-0.4,29.38,WSW,248,6.5,6.5,57,0.00,,---,0.00,VWS V14.01,2013-01-21 11:39:00,
2013-01-21 05:44:00,11.8,-0.4,29.38,WNW,292,9.6,9.6,57,0.00,,---,0.00,VWS V14.01,2013-01-21 11:44:00,
2013-01-21 05:49:00,11.8,-0.4,29.35,West,270,8.1,8.1,57,0.00,,---,0.00,VWS V14.01,2013-01-21 11:49:00,
2013-01-21 05:54:00,11.7,-0.6,29.35,West,270,6.5,6.5,57,0.00,,---,0.00,VWS V14.01,2013-01-21 11:54:00,
2013-01-21 05:59:00,11.7,-0.6,29.35,NW,315,3.8,3.8,57,0.00,,---,0.00,VWS V14.01,2013-01-21 11:59:00,
2013-01-21 06:04:00,11.3,-1.0,29.38,WNW,292,4.9,4.9,57,0.00,,---,0.00,VWS V14.01,2013-01-21 12:04:00,
2013-01-21 06:09:00,11.1,-1.1,29.38,West,270,9.6,9.6,57,0.00,,---,0.00,VWS V14.01,2013-01-21 12:09:00,
2013-01-21 06:14:00,11.1,-1.1,29.38,WNW,292,5.8,7.6,57,0.00,,---,0.00,VWS V14.01,2013-01-21 12:14:00,
2013-01-21 06:19:00,10.9,-1.3,29.38,SW,225,7.8,7.8,57,0.00,,---,0.00,VWS V14.01,2013-01-21 12:19:00,
2013-01-21 06:24:00,10.9,-1.3,29.38,WSW,248,7.6,7.6,57,0.00,,---,0.00,VWS V14.01,2013-01-21 12:24:00,
2013-01-21 06:29:00,10.8,-1.5,29.38,WNW,292,7.8,7.8,57,0.00,,---,0.00,VWS V14.01,2013-01-21 12:29:00,
2013-01-21 06:34:00,10.8,-1.5,29.38,West,270,10.3,10.3,57,0.00,,---,0.00,VWS V14.01,2013-01-21 12:34:00,
2013-01-21 06:40:00,10.4,-1.8,29.38,WSW,248,13.0,13.0,57,0.00,,---,0.00,VWS V14.01,2013-01-21 12:40:00,
2013-01-21 06:45:00,10.4,-1.8,29.38,WNW,292,13.2,13.2,57,0.00,,---,0.00,VWS V14.01,2013-01-21 12:45:00,
2013-01-21 06:50:00,10.0,-2.1,29.38,West,270,8.5,10.5,57,0.00,,---,0.00,VWS V14.01,2013-01-21 12:50:00,
2013-01-21 06:55:00,9.9,-2.3,29.38,NW,315,9.0,12.5,57,0.00,,---,0.00,VWS V14.01,2013-01-21 12:55:00,
2013-01-21 07:00:00,9.7,-2.5,29.38,WNW,292,5.8,9.2,57,0.00,,---,0.00,VWS V14.01,2013-01-21 13:00:00,
2013-01-21 07:05:00,9.5,-2.7,29.38,West,270,8.7,8.7,57,0.00,,---,0.00,VWS V14.01,2013-01-21 13:05:00,
2013-01-21 07:10:00,9.5,-2.7,29.38,WNW,292,5.6,16.3,57,0.00,,---,0.00,VWS V14.01,2013-01-21 13:10:00,
2013-01-21 07:15:00,9.3,-2.8,29.38,WSW,248,8.5,8.5,57,0.00,,---,0.00,VWS V14.01,2013-01-21 13:15:00,
2013-01-21 07:20:00,9.1,-3.0,29.38,West,270,9.6,9.6,57,0.00,,---,0.00,VWS V14.01,2013-01-21 13:20:00,
2013-01-21 07:25:00,9.3,-2.8,29.38,West,270,10.5,10.5,57,0.00,,---,0.00,VWS V14.01,2013-01-21 13:25:00,
2013-01-21 07:30:00,9.1,-3.0,29.38,WNW,292,10.7,10.7,57,0.00,,---,0.00,VWS V14.01,2013-01-21 13:30:00,
2013-01-21 07:35:00,9.3,-2.8,29.38,NNW,338,8.5,8.5,57,0.00,,---,0.00,VWS V14.01,2013-01-21 13:35:00,
2013-01-21 07:40:00,9.1,-3.0,29.38,WNW,292,9.4,9.4,57,0.00,,---,0.00,VWS V14.01,2013-01-21 13:40:00,
2013-01-21 07:45:00,9.1,-3.0,29.38,WNW,292,9.8,9.8,57,0.00,,---,0.00,VWS V14.01,2013-01-21 13:45:00,
2013-01-21 07:50:00,8.8,-3.3,29.38,NNW,338,4.0,12.3,57,0.00,,---,0.00,VWS V14.01,2013-01-21 13:50:00,
2013-01-21 07:56:00,9.1,-3.0,29.38,NNW,338,7.4,7.4,57,0.00,,---,0.00,VWS V14.01,2013-01-21 13:56:00,
2013-01-21 08:01:00,8.8,-3.3,29.38,West,270,6.0,6.0,57,0.00,,---,0.00,VWS V14.01,2013-01-21 14:01:00,
2013-01-21 08:06:00,8.8,-3.3,29.38,NW,315,13.0,13.0,57,0.00,,---,0.00,VWS V14.01,2013-01-21 14:06:00,
2013-01-21 08:11:00,9.0,-3.2,29.38,West,270,5.4,5.4,57,0.00,,---,0.00,VWS V14.01,2013-01-21 14:11:00,
2013-01-21 08:16:00,9.1,-3.0,29.41,West,270,6.3,6.3,57,0.00,,---,0.00,VWS V14.01,2013-01-21 14:16:00,
2013-01-21 08:21:00,9.0,-3.2,29.41,WSW,248,8.5,8.5,57,0.00,,---,0.00,VWS V14.01,2013-01-21 14:21:00,
2013-01-21 08:26:00,8.8,-3.3,29.41,NNW,338,8.1,8.1,57,0.00,,---,0.00,VWS V14.01,2013-01-21 14:26:00,
2013-01-21 08:31:00,8.8,-3.3,29.41,NNW,338,5.8,7.4,57,0.00,,---,0.00,VWS V14.01,2013-01-21 14:31:00,
2013-01-21 08:36:00,9.3,-2.8,29.41,West,270,9.0,9.0,57,0.00,,---,0.00,VWS V14.01,2013-01-21 14:36:00,
2013-01-21 08:41:00,9.3,-2.8,29.41,SW,225,8.7,8.7,57,0.00,,---,0.00,VWS V14.01,2013-01-21 14:41:00,
2013-01-21 08:46:00,9.1,-3.0,29.41,West,270,8.5,8.5,57,0.00,,---,0.00,VWS V14.01,2013-01-21 14:46:00,
2013-01-21 08:51:00,9.3,-2.8,29.41,NNW,338,8.1,12.8,57,0.00,,---,0.00,VWS V14.01,2013-01-21 14:51:00,
2013-01-21 08:57:00,9.5,-2.7,29.41,SW,225,4.7,5.8,57,0.00,,---,0.00,VWS V14.01,2013-01-21 14:57:00,
2013-01-21 09:02:00,9.3,-2.8,29.41,WSW,248,8.5,14.1,57,0.00,,---,0.00,VWS V14.01,2013-01-21 15:02:00,
2013-01-21 09:07:00,9.7,-2.5,29.41,NNW,338,6.3,6.3,57,0.00,,---,0.00,VWS V14.01,2013-01-21 15:07:00,
2013-01-21 09:12:00,9.5,-2.7,29.41,NNW,338,9.8,9.8,57,0.00,,---,0.00,VWS V14.01,2013-01-21 15:12:00,
2013-01-21 09:17:00,9.5,-2.7,29.44,West,270,10.3,10.3,57,0.00,,---,0.00,VWS V14.01,2013-01-21 15:17:00,
2013-01-21 09:22:00,9.7,-2.5,29.44,West,270,5.6,12.8,57,0.00,,---,0.00,VWS V14.01,2013-01-21 15:22:00,
2013-01-21 09:27:00,10.0,-2.1,29.44,NW,315,11.9,12.5,57,0.00,,---,0.00,VWS V14.01,2013-01-21 15:27:00,
2013-01-21 09:32:00,9.9,-2.3,29.44,West,270,5.8,5.8,57,0.00,,---,0.00,VWS V14.01,2013-01-21 15:32:00,
2013-01-21 09:37:00,10.0,-2.1,29.44,WNW,292,9.8,9.8,57,0.00,,---,0.00,VWS V14.01,2013-01-21 15:37:00,
2013-01-21 09:42:00,10.2,-2.0,29.44,WSW,248,8.5,8.5,57,0.00,,---,0.00,VWS V14.01,2013-01-21 15:42:00,
2013-01-21 09:47:00,10.8,-1.5,29.44,NW,315,8.5,8.5,57,0.00,,---,0.00,VWS V14.01,2013-01-21 15:47:00,
2013-01-21 09:53:00,11.3,-1.0,29.44,West,270,11.9,12.1,57,0.00,,---,0.00,VWS V14.01,2013-01-21 15:53:00,
2013-01-21 09:58:00,11.3,-1.0,29.44,North,0,4.7,4.7,57,0.00,,---,0.00,VWS V14.01,2013-01-21 15:58:00,
2013-01-21 10:03:00,11.5,-0.8,29.44,NNW,338,7.8,7.8,57,0.00,,---,0.00,VWS V14.01,2013-01-21 16:03:00,
2013-01-21 10:08:00,11.8,-0.4,29.44,NW,315,7.4,7.6,57,0.00,,---,0.00,VWS V14.01,2013-01-21 16:08:00,
2013-01-21 10:13:00,11.1,-1.1,29.44,NW,315,10.3,10.3,57,0.00,,---,0.00,VWS V14.01,2013-01-21 16:13:00,
2013-01-21 10:18:00,11.3,-1.0,29.44,West,270,5.8,7.2,57,0.00,,---,0.00,VWS V14.01,2013-01-21 16:18:00,
2013-01-21 10:23:00,11.3,-1.0,29.44,NNW,338,9.6,9.6,57,0.00,,---,0.00,VWS V14.01,2013-01-21 16:23:00,
2013-01-21 10:28:00,10.8,-1.5,29.44,North,0,12.3,12.3,57,0.00,,---,0.00,VWS V14.01,2013-01-21 16:28:00,
2013-01-21 10:33:00,10.9,-1.3,29.44,NNE,22,6.5,6.5,57,0.00,,---,0.00,VWS V14.01,2013-01-21 16:33:00,
2013-01-21 10:38:00,11.1,-1.1,29.44,North,0,4.0,13.4,57,0.00,,---,0.00,VWS V14.01,2013-01-21 16:38:00,
2013-01-21 10:44:00,11.1,-1.1,29.44,NNW,338,4.3,4.3,57,0.00,,---,0.00,VWS V14.01,2013-01-21 16:44:00,
2013-01-21 10:49:00,10.8,-1.5,29.44,West,270,4.7,8.1,57,0.00,,---,0.00,VWS V14.01,2013-01-21 16:49:00,
2013-01-21 10:54:00,11.5,-0.8,29.44,North,0,6.0,6.0,57,0.00,,---,0.00,VWS V14.01,2013-01-21 16:54:00,
2013-01-21 10:59:00,11.7,-0.6,29.44,West,270,6.3,8.5,57,0.00,,---,0.00,VWS V14.01,2013-01-21 16:59:00,
2013-01-21 11:04:00,12.0,-0.3,29.44,WNW,292,9.6,9.6,57,0.00,,---,0.00,VWS V14.01,2013-01-21 17:04:00,
2013-01-21 11:09:00,11.8,-0.4,29.44,NW,315,8.7,8.7,57,0.00,,---,0.00,VWS V14.01,2013-01-21 17:09:00,
2013-01-21 11:14:00,12.0,-0.3,29.44,North,0,10.3,10.3,57,0.00,,---,0.00,VWS V14.01,2013-01-21 17:14:00,
2013-01-21 11:19:00,12.2,-0.1,29.44,WNW,292,6.7,10.7,57,0.00,,---,0.00,VWS V14.01,2013-01-21 17:19:00,
2013-01-21 11:24:00,12.0,-0.3,29.44,WNW,292,10.5,10.5,57,0.00,,---,0.00,VWS V14.01,2013-01-21 17:24:00,
2013-01-21 11:29:00,12.0,-0.3,29.44,WNW,292,12.8,12.8,57,0.00,,---,0.00,VWS V14.01,2013-01-21 17:29:00,
2013-01-21 11:34:00,12.0,-0.3,29.44,West,270,5.8,5.8,57,0.00,,---,0.00,VWS V14.01,2013-01-21 17:34:00,
2013-01-21 11:40:00,12.0,-0.3,29.44,WNW,292,8.7,8.7,57,0.00,,---,0.00,VWS V14.01,2013-01-21 17:40:00,
2013-01-21 11:45:00,12.2,-0.1,29.44,West,270,7.8,7.8,57,0.00,,---,0.00,VWS V14.01,2013-01-21 17:45:00,
2013-01-21 11:50:00,12.0,-0.3,29.44,NW,315,7.4,11.2,57,0.00,,---,0.00,VWS V14.01,2013-01-21 17:50:00,
2013-01-21 11:55:00,12.2,-0.1,29.44,NW,315,10.5,10.5,57,0.00,,---,0.00,VWS V14.01,2013-01-21 17:55:00,
2013-01-21 12:00:00,12.0,-0.3,29.44,NNW,338,12.3,12.3,57,0.00,,---,0.00,VWS V14.01,2013-01-21 18:00:00,
2013-01-21 12:05:00,12.4,0.1,29.44,NNW,338,6.3,6.3,57,0.00,,---,0.00,VWS V14.01,2013-01-21 18:05:00,
2013-01-21 12:10:00,12.2,-0.1,29.44,WNW,292,6.5,8.5,57,0.00,,---,0.00,VWS V14.01,2013-01-21 18:10:00,
2013-01-21 12:15:00,12.2,-0.1,29.44,West,270,9.6,9.6,57,0.00,,---,0.00,VWS V14.01,2013-01-21 18:15:00,
2013-01-21 12:20:00,12.6,0.2,29.44,WSW,248,7.8,7.8,57,0.00,,---,0.00,VWS V14.01,2013-01-21 18:20:00,
2013-01-21 12:25:00,12.7,0.4,29.44,WSW,248,8.7,8.7,57,0.00,,---,0.00,VWS V14.01,2013-01-21 18:25:00,
2013-01-21 12:30:00,12.7,0.4,29.44,WNW,292,3.6,6.5,57,0.00,,---,0.00,VWS V14.01,2013-01-21 18:30:00,
2013-01-21 12:35:00,12.9,0.6,29.44,West,270,11.2,11.2,57,0.00,,---,0.00,VWS V14.01,2013-01-21 18:35:00,
2013-01-21 12:40:00,13.1,0.7,29.44,WNW,292,7.2,7.2,57,0.00,,---,0.00,VWS V14.01,2013-01-21 18:40:00,
2013-01-21 12:45:00,13.3,0.9,29.44,WSW,248,5.8,6.5,57,0.00,,---,0.00,VWS V14.01,2013-01-21 18:45:00,
2013-01-21 12:50:00,12.9,0.6,29.44,WNW,292,12.1,12.1,57,0.00,,---,0.00,VWS V14.01,2013-01-21 18:50:00,
2013-01-21 12:55:00,12.7,0.4,29.44,West,270,12.5,12.5,57,0.00,,---,0.00,VWS V14.01,2013-01-21 18:55:00,
2013-01-21 13:00:00,12.7,0.4,29.44,WSW,248,9.4,9.4,57,0.00,,---,0.00,VWS V14.01,2013-01-21 19:00:00,
2013-01-21 13:05:00,12.6,0.2,29.44,WNW,292,6.3,6.3,57,0.00,,---,0.00,VWS V14.01,2013-01-21 19:05:00,
2013-01-21 13:11:00,12.6,0.2,29.44,West,270,7.4,7.4,57,0.00,,---,0.00,VWS V14.01,2013-01-21 19:11:00,
2013-01-21 13:16:00,12.6,0.2,29.41,West,270,11.4,11.4,57,0.00,,---,0.00,VWS V14.01,2013-01-21 19:16:00,
2013-01-21 13:21:00,12.6,0.2,29.41,WNW,292,5.4,5.8,57,0.00,,---,0.00,VWS V14.01,2013-01-21 19:21:00,
2013-01-21 13:26:00,12.7,0.4,29.41,WSW,248,3.1,14.3,57,0.00,,---,0.00,VWS V14.01,2013-01-21 19:26:00,
2013-01-21 13:31:00,13.1,0.7,29.41,West,270,14.8,14.8,57,0.00,,---,0.00,VWS V14.01,2013-01-21 19:31:00,
2013-01-21 13:36:00,13.5,1.1,29.41,West,270,5.8,6.3,57,0.00,,---,0.00,VWS V14.01,2013-01-21 19:36:00,
2013-01-21 13:41:00,13.6,1.2,29.41,WNW,292,8.5,8.5,57,0.00,,---,0.00,VWS V14.01,2013-01-21 19:41:00,
2013-01-21 13:46:00,14.4,-2.2,29.41,NW,315,4.3,4.3,47,0.00,,---,0.00,VWS V14.01,2013-01-21 19:46:00,
2013-01-21 13:51:00,14.2,-2.8,29.41,WNW,292,6.5,9.6,46,0.00,,---,0.00,VWS V14.01,2013-01-21 19:51:00,
2013-01-21 13:56:00,14.2,-2.8,29.41,NNW,338,5.6,5.6,46,0.00,,---,0.00,VWS V14.01,2013-01-21 19:56:00,
2013-01-21 14:01:00,14.2,-2.8,29.41,WSW,248,9.8,9.8,46,0.00,,---,0.00,VWS V14.01,2013-01-21 20:01:00,
2013-01-21 14:06:00,14.2,-2.8,29.41,WNW,292,7.6,9.4,46,0.00,,---,0.00,VWS V14.01,2013-01-21 20:06:00,
2013-01-21 14:11:00,14.2,-3.2,29.41,NW,315,5.8,5.8,45,0.00,,---,0.00,VWS V14.01,2013-01-21 20:11:00,
2013-01-21 14:16:00,14.4,-3.1,29.41,WNW,292,10.7,10.7,45,0.00,,---,0.00,VWS V14.01,2013-01-21 20:16:00,
2013-01-21 14:22:00,14.2,-3.2,29.41,West,270,7.8,8.5,45,0.00,,---,0.00,VWS V14.01,2013-01-21 20:22:00,
2013-01-21 14:27:00,14.4,-3.1,29.41,WNW,292,5.8,5.8,45,0.00,,---,0.00,VWS V14.01,2013-01-21 20:27:00,
2013-01-21 14:32:00,14.5,-2.9,29.44,WNW,292,6.0,6.0,45,0.00,,---,0.00,VWS V14.01,2013-01-21 20:32:00,
2013-01-21 14:37:00,14.7,-2.8,29.44,WSW,248,5.4,5.4,45,0.00,,---,0.00,VWS V14.01,2013-01-21 20:37:00,
2013-01-21 14:42:00,14.9,-2.6,29.44,West,270,7.6,10.5,45,0.00,,---,0.00,VWS V14.01,2013-01-21 20:42:00,
2013-01-21 14:47:00,14.7,-2.8,29.44,North,0,8.1,8.1,45,0.00,,---,0.00,VWS V14.01,2013-01-21 20:47:00,
2013-01-21 14:52:00,14.9,-2.6,29.44,SW,225,6.5,7.4,45,0.00,,---,0.00,VWS V14.01,2013-01-21 20:52:00,
2013-01-21 14:57:00,14.5,-2.9,29.44,West,270,6.0,6.0,45,0.00,,---,0.00,VWS V14.01,2013-01-21 20:57:00,
2013-01-21 15:02:00,15.1,-2.4,29.44,NNW,338,4.9,6.3,45,0.00,,---,0.00,VWS V14.01,2013-01-21 21:02:00,
2013-01-21 15:07:00,15.1,-2.4,29.44,West,270,10.7,10.7,45,0.00,,---,0.00,VWS V14.01,2013-01-21 21:07:00,
2013-01-21 15:12:00,14.9,-2.6,29.44,North,0,3.1,3.1,45,0.00,,---,0.00,VWS V14.01,2013-01-21 21:12:00,
2013-01-21 15:17:00,15.1,-2.4,29.44,WSW,248,8.5,8.5,45,0.00,,---,0.00,VWS V14.01,2013-01-21 21:17:00,
2013-01-21 15:22:00,15.1,-2.4,29.44,West,270,10.1,10.1,45,0.00,,---,0.00,VWS V14.01,2013-01-21 21:22:00,
2013-01-21 15:27:00,14.5,-2.9,29.44,WSW,248,12.5,12.5,45,0.00,,---,0.00,VWS V14.01,2013-01-21 21:27:00,
2013-01-21 15:32:00,14.5,-2.9,29.44,West,270,6.7,8.7,45,0.00,,---,0.00,VWS V14.01,2013-01-21 21:32:00,
2013-01-21 15:37:00,14.2,-3.2,29.44,WNW,292,4.3,4.3,45,0.00,,---,0.00,VWS V14.01,2013-01-21 21:37:00,
2013-01-21 15:43:00,14.2,-3.2,29.44,NW,315,6.9,11.4,45,0.00,,---,0.00,VWS V14.01,2013-01-21 21:43:00,
2013-01-21 15:48:00,13.6,-3.8,29.44,West,270,9.2,9.6,45,0.00,,---,0.00,VWS V14.01,2013-01-21 21:48:00,
2013-01-21 15:53:00,13.5,-3.9,29.44,WNW,292,4.9,4.9,45,0.00,,---,0.00,VWS V14.01,2013-01-21 21:53:00,
2013-01-21 15:58:00,13.5,-3.9,29.44,WSW,248,5.8,7.4,45,0.00,,---,0.00,VWS V14.01,2013-01-21 21:58:00,
2013-01-21 16:03:00,13.3,-4.1,29.44,West,270,5.6,5.6,45,0.00,,---,0.00,VWS V14.01,2013-01-21 22:03:00,
2013-01-21 16:08:00,13.1,-4.2,29.44,West,270,8.1,15.4,45,0.00,,---,0.00,VWS V14.01,2013-01-21 22:08:00,
2013-01-21 16:13:00,12.7,-4.6,29.44,WSW,248,8.7,8.7,45,0.00,,---,0.00,VWS V14.01,2013-01-21 22:13:00,
2013-01-21 16:18:00,12.7,-4.6,29.44,West,270,11.0,11.4,45,0.00,,---,0.00,VWS V14.01,2013-01-21 22:18:00,
2013-01-21 16:23:00,12.2,-5.1,29.44,WSW,248,8.7,8.7,45,0.00,,---,0.00,VWS V14.01,2013-01-21 22:23:00,
2013-01-21 16:28:00,12.0,-5.2,29.44,WSW,248,10.1,10.1,45,0.00,,---,0.00,VWS V14.01,2013-01-21 22:28:00,
2013-01-21 16:33:00,11.8,-5.4,29.44,WNW,292,12.8,12.8,45,0.00,,---,0.00,VWS V14.01,2013-01-21 22:33:00,
2013-01-21 16:38:00,11.7,-5.6,29.44,NW,315,6.0,6.0,45,0.00,,---,0.00,VWS V14.01,2013-01-21 22:38:00,
2013-01-21 16:43:00,11.7,-5.6,29.44,West,270,5.4,5.6,45,0.00,,---,0.00,VWS V14.01,2013-01-21 22:43:00,
2013-01-21 16:48:00,11.3,-5.9,29.44,WSW,248,12.8,12.8,45,0.00,,---,0.00,VWS V14.01,2013-01-21 22:48:00,
2013-01-21 16:53:00,11.1,-6.1,29.44,West,270,7.8,7.8,45,0.00,,---,0.00,VWS V14.01,2013-01-21 22:53:00,
2013-01-21 16:58:00,10.8,-6.4,29.44,West,270,8.5,12.1,45,0.00,,---,0.00,VWS V14.01,2013-01-21 22:58:00,
2013-01-21 17:03:00,10.6,-6.6,29.44,West,270,4.3,4.3,45,0.00,,---,0.00,VWS V14.01,2013-01-21 23:03:00,
2013-01-21 17:08:00,10.4,-6.7,29.44,West,270,9.6,9.6,45,0.00,,---,0.00,VWS V14.01,2013-01-21 23:08:00,
2013-01-21 17:13:00,10.4,-6.7,29.44,WSW,248,5.6,5.6,45,0.00,,---,0.00,VWS V14.01,2013-01-21 23:13:00,
2013-01-21 17:19:00,10.2,-6.9,29.44,West,270,9.6,9.6,45,0.00,,---,0.00,VWS V14.01,2013-01-21 23:19:00,
2013-01-21 17:24:00,10.2,-6.9,29.44,West,270,7.8,7.8,45,0.00,,---,0.00,VWS V14.01,2013-01-21 23:24:00,
2013-01-21 17:29:00,10.0,-7.1,29.44,WNW,292,7.8,7.8,45,0.00,,---,0.00,VWS V14.01,2013-01-21 23:29:00,
2013-01-21 17:34:00,9.7,-7.4,29.44,West,270,3.4,6.5,45,0.00,,---,0.00,VWS V14.01,2013-01-21 23:34:00,
2013-01-21 17:39:00,9.5,-7.6,29.44,WNW,292,13.0,13.0,45,0.00,,---,0.00,VWS V14.01,2013-01-21 23:39:00,
2013-01-21 17:44:00,9.3,-7.7,29.44,West,270,7.8,7.8,45,0.00,,---,0.00,VWS V14.01,2013-01-21 23:44:00,
2013-01-21 17:49:00,9.1,-7.9,29.44,WNW,292,7.2,7.2,45,0.00,,---,0.00,VWS V14.01,2013-01-21 23:49:00,
2013-01-21 17:54:00,9.0,-8.1,29.44,WNW,292,11.0,11.0,45,0.00,,---,0.00,VWS V14.01,2013-01-21 23:54:00,
2013-01-21 17:59:00,8.8,-8.2,29.44,WSW,248,11.0,11.0,45,0.00,,---,0.00,VWS V14.01,2013-01-21 23:59:00,
2013-01-21 18:05:00,8.8,-8.2,29.44,West,270,5.4,7.2,45,0.00,,---,0.00,VWS V14.01,2013-01-22 00:05:00,
2013-01-21 18:10:00,8.6,-8.4,29.44,West,270,6.3,6.3,45,0.00,,---,0.00,VWS V14.01,2013-01-22 00:10:00,
2013-01-21 18:15:00,8.6,-8.4,29.44,SW,225,6.7,6.7,45,0.00,,---,0.00,VWS V14.01,2013-01-22 00:15:00,
2013-01-21 18:20:00,8.6,-8.4,29.44,WNW,292,7.6,7.6,45,0.00,,---,0.00,VWS V14.01,2013-01-22 00:20:00,
2013-01-21 18:25:00,8.4,-8.5,29.44,West,270,7.8,10.1,45,0.00,,---,0.00,VWS V14.01,2013-01-22 00:25:00,
2013-01-21 18:30:00,8.4,-8.5,29.44,WSW,248,3.4,4.3,45,0.00,,---,0.00,VWS V14.01,2013-01-22 00:30:00,
2013-01-21 18:35:00,8.2,-8.7,29.44,West,270,5.8,8.1,45,0.00,,---,0.00,VWS V14.01,2013-01-22 00:35:00,
2013-01-21 18:40:00,8.1,-8.9,29.44,NW,315,9.8,9.8,45,0.00,,---,0.00,VWS V14.01,2013-01-22 00:40:00,
2013-01-21 18:45:00,7.9,-9.0,29.44,West,270,10.3,10.3,45,0.00,,---,0.00,VWS V14.01,2013-01-22 00:45:00,
2013-01-21 18:50:00,7.9,-9.0,29.44,West,270,4.9,5.6,45,0.00,,---,0.00,VWS V14.01,2013-01-22 00:50:00,
2013-01-21 18:55:00,7.9,-9.0,29.44,NW,315,7.6,7.6,45,0.00,,---,0.00,VWS V14.01,2013-01-22 00:55:00,
2013-01-21 19:00:00,7.9,-9.0,29.44,West,270,13.2,13.2,45,0.00,,---,0.00,VWS V14.01,2013-01-22 01:00:00,
2013-01-21 19:05:00,7.9,-9.0,29.44,WSW,248,6.5,7.4,45,0.00,,---,0.00,VWS V14.01,2013-01-22 01:05:00,
2013-01-21 19:10:00,7.9,-9.0,29.44,West,270,7.6,7.6,45,0.00,,---,0.00,VWS V14.01,2013-01-22 01:10:00,
2013-01-21 19:16:00,7.7,-9.2,29.47,West,270,8.7,12.8,45,0.00,,---,0.00,VWS V14.01,2013-01-22 01:16:00,
2013-01-21 19:21:00,7.7,-9.2,29.47,NNW,338,5.6,5.6,45,0.00,,---,0.00,VWS V14.01,2013-01-22 01:21:00,
2013-01-21 19:26:00,7.7,-9.2,29.47,WSW,248,7.8,7.8,45,0.00,,---,0.00,VWS V14.01,2013-01-22 01:26:00,
2013-01-21 19:31:00,7.5,-9.4,29.44,WSW,248,12.8,12.8,45,0.00,,---,0.00,VWS V14.01,2013-01-22 01:31:00,
2013-01-21 19:36:00,7.7,-9.2,29.44,West,270,7.2,7.2,45,0.00,,---,0.00,VWS V14.01,2013-01-22 01:36:00,
2013-01-21 19:41:00,7.3,-9.5,29.44,West,270,5.8,12.1,45,0.00,,---,0.00,VWS V14.01,2013-01-22 01:41:00,
2013-01-21 19:46:00,7.3,-9.5,29.47,WNW,292,16.1,16.1,45,0.00,,---,0.00,VWS V14.01,2013-01-22 01:46:00,
2013-01-21 19:51:00,7.2,-9.7,29.47,WNW,292,9.6,9.8,45,0.00,,---,0.00,VWS V14.01,2013-01-22 01:51:00,
2013-01-21 19:56:00,7.0,-9.9,29.47,West,270,12.3,12.3,45,0.00,,---,0.00,VWS V14.01,2013-01-22 01:56:00,
2013-01-21 20:01:00,7.0,-9.9,29.47,WSW,248,15.2,15.2,45,0.00,,---,0.00,VWS V14.01,2013-01-22 02:01:00,
2013-01-21 20:07:00,7.0,-9.9,29.47,SW,225,10.1,10.1,45,0.00,,---,0.00,VWS V14.01,2013-01-22 02:07:00,
2013-01-21 20:12:00,7.0,-9.9,29.47,WSW,248,12.1,12.1,45,0.00,,---,0.00,VWS V14.01,2013-01-22 02:12:00,
2013-01-21 20:17:00,6.8,-10.0,29.47,WNW,292,7.6,7.6,45,0.00,,---,0.00,VWS V14.01,2013-01-22 02:17:00,
2013-01-21 20:22:00,6.6,-10.2,29.47,West,270,5.8,6.3,45,0.00,,---,0.00,VWS V14.01,2013-01-22 02:22:00,
2013-01-21 20:27:00,6.8,-10.0,29.47,West,270,7.6,7.6,45,0.00,,---,0.00,VWS V14.01,2013-01-22 02:27:00,
2013-01-21 20:32:00,6.4,-10.4,29.47,NNW,338,4.0,10.5,45,0.00,,---,0.00,VWS V14.01,2013-01-22 02:32:00,
2013-01-21 20:37:00,6.6,-10.2,29.47,WSW,248,9.4,11.4,45,0.00,,---,0.00,VWS V14.01,2013-01-22 02:37:00,
2013-01-21 20:42:00,6.4,-10.4,29.47,West,270,10.5,10.5,45,0.00,,---,0.00,VWS V14.01,2013-01-22 02:42:00,
2013-01-21 20:47:00,6.4,-10.4,29.47,West,270,7.6,7.6,45,0.00,,---,0.00,VWS V14.01,2013-01-22 02:47:00,
2013-01-21 20:52:00,6.4,-10.4,29.47,West,270,10.1,10.1,45,0.00,,---,0.00,VWS V14.01,2013-01-22 02:52:00,
2013-01-21 20:57:00,6.3,-10.5,29.47,West,270,5.4,5.4,45,0.00,,---,0.00,VWS V14.01,2013-01-22 02:57:00,
2013-01-21 21:03:00,6.3,-10.5,29.47,West,270,10.1,10.1,45,0.00,,---,0.00,VWS V14.01,2013-01-22 03:03:00,
2013-01-21 21:08:00,6.3,-10.5,29.47,West,270,6.5,6.5,45,0.00,,---,0.00,VWS V14.01,2013-01-22 03:08:00,
2013-01-21 21:13:00,6.3,-10.5,29.47,WNW,292,6.3,8.5,45,0.00,,---,0.00,VWS V14.01,2013-01-22 03:13:00,
2013-01-21 21:18:00,6.4,-10.4,29.47,West,270,10.7,10.7,45,0.00,,---,0.00,VWS V14.01,2013-01-22 03:18:00,
2013-01-21 21:23:00,6.4,-10.4,29.47,WSW,248,6.0,6.0,45,0.00,,---,0.00,VWS V14.01,2013-01-22 03:23:00,
2013-01-21 21:28:00,6.3,-10.5,29.47,West,270,8.1,8.1,45,0.00,,---,0.00,VWS V14.01,2013-01-22 03:28:00,
2013-01-21 21:33:00,6.3,-10.5,29.47,West,270,10.1,10.1,45,0.00,,---,0.00,VWS V14.01,2013-01-22 03:33:00,
2013-01-21 21:38:00,6.3,-10.5,29.47,West,270,9.0,10.3,45,0.00,,---,0.00,VWS V14.01,2013-01-22 03:38:00,
2013-01-21 21:43:00,6.3,-10.5,29.47,West,270,5.8,5.8,45,0.00,,---,0.00,VWS V14.01,2013-01-22 03:43:00,
2013-01-21 21:48:00,6.3,-10.5,29.47,WNW,292,4.9,7.6,45,0.00,,---,0.00,VWS V14.01,2013-01-22 03:48:00,
2013-01-21 21:53:00,6.3,-10.5,29.47,WSW,248,12.1,13.2,45,0.00,,---,0.00,VWS V14.01,2013-01-22 03:53:00,
2013-01-21 21:58:00,6.3,-10.5,29.47,WSW,248,15.2,15.2,45,0.00,,---,0.00,VWS V14.01,2013-01-22 03:58:00,
2013-01-21 22:03:00,6.3,-10.5,29.47,WNW,292,7.6,7.6,45,0.00,,---,0.00,VWS V14.01,2013-01-22 04:03:00,
2013-01-21 22:09:00,6.3,-10.5,29.47,WNW,292,5.4,5.4,45,0.00,,---,0.00,VWS V14.01,2013-01-22 04:09:00,
2013-01-21 22:14:00,6.3,-10.5,29.47,West,270,4.0,8.1,45,0.00,,---,0.00,VWS V14.01,2013-01-22 04:14:00,
2013-01-21 22:19:00,6.3,-10.5,29.47,WSW,248,7.2,7.2,45,0.00,,---,0.00,VWS V14.01,2013-01-22 04:19:00,
2013-01-21 22:24:00,6.3,-10.5,29.47,WSW,248,8.5,8.5,45,0.00,,---,0.00,VWS V14.01,2013-01-22 04:24:00,
2013-01-21 22:29:00,6.1,-10.7,29.47,West,270,8.5,9.8,45,0.00,,---,0.00,VWS V14.01,2013-01-22 04:29:00,
2013-01-21 22:34:00,6.3,-10.5,29.47,WSW,248,3.8,6.3,45,0.00,,---,0.00,VWS V14.01,2013-01-22 04:34:00,
2013-01-21 22:39:00,6.3,-10.5,29.47,West,270,6.0,7.4,45,0.00,,---,0.00,VWS V14.01,2013-01-22 04:39:00,
2013-01-21 22:44:00,6.3,-10.5,29.47,WSW,248,6.0,7.6,45,0.00,,---,0.00,VWS V14.01,2013-01-22 04:44:00,
2013-01-21 22:49:00,6.3,-10.5,29.47,WNW,292,3.6,10.1,45,0.00,,---,0.00,VWS V14.01,2013-01-22 04:49:00,
2013-01-21 22:54:00,6.1,-10.7,29.47,WNW,292,9.8,9.8,45,0.00,,---,0.00,VWS V14.01,2013-01-22 04:54:00,
2013-01-21 22:59:00,6.1,-10.7,29.50,West,270,10.1,10.1,45,0.00,,---,0.00,VWS V14.01,2013-01-22 04:59:00,
2013-01-21 23:00:00,6.1,-10.7,29.50,SW,225,7.2,10.1,45,0.00,,---,0.00,VWS V14.01,2013-01-22 05:00:00,
2013-01-21 23:01:00,6.1,-10.7,29.50,WNW,292,8.5,8.5,45,0.00,,---,0.00,VWS V14.01,2013-01-22 05:01:00,
2013-01-21 23:03:00,6.1,-10.7,29.50,WNW,292,8.7,8.7,45,0.00,,---,0.00,VWS V14.01,2013-01-22 05:03:00,
2013-01-21 23:08:00,6.1,-10.7,29.50,West,270,7.4,7.4,45,0.00,,---,0.00,VWS V14.01,2013-01-22 05:08:00,
2013-01-21 23:13:00,6.1,-10.7,29.50,WSW,248,3.8,5.6,45,0.00,,---,0.00,VWS V14.01,2013-01-22 05:13:00,
2013-01-21 23:19:00,6.1,-10.7,29.47,West,270,4.9,4.9,45,0.00,,---,0.00,VWS V14.01,2013-01-22 05:19:00,
2013-01-21 23:24:00,6.1,-10.7,29.47,WSW,248,8.1,9.0,45,0.00,,---,0.00,VWS V14.01,2013-01-22 05:24:00,
2013-01-21 23:29:00,6.1,-10.7,29.47,WSW,248,7.8,7.8,45,0.00,,---,0.00,VWS V14.01,2013-01-22 05:29:00,
2013-01-21 23:34:00,5.9,-10.9,29.47,WSW,248,5.6,8.7,45,0.00,,---,0.00,VWS V14.01,2013-01-22 05:34:00,
2013-01-21 23:39:00,6.1,-10.7,29.47,North,0,8.5,8.5,45,0.00,,---,0.00,VWS V14.01,2013-01-22 05:39:00,
2013-01-21 23:44:00,6.1,-10.7,29.47,West,270,6.3,6.3,45,0.00,,---,0.00,VWS V14.01,2013-01-22 05:44:00,
2013-01-21 23:49:00,5.9,-10.9,29.47,West,270,4.0,5.4,45,0.00,,---,0.00,VWS V14.01,2013-01-22 05:49:00,
2013-01-21 23:54:00,6.1,-10.7,29.47,WNW,292,4.0,4.0,45,0.00,,---,0.00,VWS V14.01,2013-01-22 05:54:00,
2013-01-21 23:59:00,5.9,-10.9,29.47,West,270,5.8,9.0,45,0.00,,---,0.00,VWS V14.01,2013-01-22 05:59:00,